Time;durP1;ratioP1;P1;durP2;ratioP2;P2;SDS_P1;SDS_P2;PMS_P1;PMS_P2;Temp;Humidity;BMP_temperature;BMP_pressure;BME280_temperature;BME280_humidity;BME280_pressure;Samples;Min_cycle;Max_cycle;Signal;HPM_P1;HPM_P2
2021/10/24 00:01:25;;;;;;;0.33;0.33;;;13.10;84.50;;;;;;4946877;28;20214;-72
2021/10/24 00:03:53;;;;;;;4.33;0.63;;;13.10;84.40;;;;;;4949964;28;20250;-72
2021/10/24 00:06:20;;;;;;;0.57;0.57;;;13.10;84.40;;;;;;4941718;28;20655;-72
2021/10/24 00:08:48;;;;;;;0.20;0.20;;;13.10;85.00;;;;;;4946988;28;20214;-73
2021/10/24 00:11:15;;;;;;;0.10;0.10;;;13.10;84.20;;;;;;4948520;29;20280;-73
2021/10/24 00:13:42;;;;;;;0.20;0.20;;;13.10;83.90;;;;;;4952484;28;20230;-74
2021/10/24 00:16:10;;;;;;;0.20;0.20;;;13.10;83.90;;;;;;4955074;29;20593;-74
2021/10/24 00:18:38;;;;;;;0.27;0.27;;;13.10;83.70;;;;;;4957188;28;20272;-73
2021/10/24 00:21:05;;;;;;;2.33;0.63;;;13.10;83.80;;;;;;4957021;28;20214;-74
2021/10/24 00:23:33;;;;;;;0.13;0.13;;;13.00;84.20;;;;;;4957344;29;20375;-74
2021/10/24 00:26:00;;;;;;;0.20;0.20;;;13.00;84.10;;;;;;4956175;28;20213;-74
2021/10/24 00:28:28;;;;;;;0.63;0.63;;;13.00;83.60;;;;;;4955649;28;20286;-74
2021/10/24 00:30:56;;;;;;;0.10;0.10;;;12.90;83.70;;;;;;4955828;28;20271;-75
2021/10/24 00:33:23;;;;;;;0.30;0.30;;;12.90;83.80;;;;;;4956694;28;20222;-74
2021/10/24 00:35:56;;;;;;;0.30;0.20;;;12.80;83.70;;;;;;4955527;29;20324;-74
2021/10/24 00:38:23;;;;;;;0.17;0.17;;;12.80;83.70;;;;;;4956546;28;20579;-74
2021/10/24 00:40:51;;;;;;;0.00;0.00;;;12.70;83.70;;;;;;4986670;28;20210;-74
2021/10/24 00:43:18;;;;;;;0.10;0.10;;;12.70;84.20;;;;;;4955260;28;20210;-74
2021/10/24 00:45:45;;;;;;;4.03;1.80;;;12.60;83.30;;;;;;4956044;28;20233;-74
2021/10/24 00:48:13;;;;;;;0.10;0.10;;;12.60;83.20;;;;;;4954945;29;20221;-75
2021/10/24 00:50:42;;;;;;;0.27;0.27;;;12.60;83.00;;;;;;4955916;28;20296;-74
2021/10/24 00:53:12;;;;;;;2.27;0.40;;;12.50;83.00;;;;;;4955501;28;20202;-74
2021/10/24 00:55:40;;;;;;;0.30;0.30;;;12.50;82.80;;;;;;4955433;28;20226;-73
2021/10/24 00:58:08;;;;;;;0.47;0.47;;;12.40;82.90;;;;;;4955803;28;20213;-73
2021/10/24 01:00:35;;;;;;;0.20;0.20;;;12.40;83.00;;;;;;4954411;28;20292;-73
2021/10/24 01:03:03;;;;;;;0.90;0.80;;;12.40;82.80;;;;;;4955014;29;20285;-73
2021/10/24 01:05:31;;;;;;;0.10;0.10;;;12.50;82.70;;;;;;4955555;28;20244;-73
2021/10/24 01:08:01;;;;;;;0.10;0.10;;;12.40;82.40;;;;;;4954860;29;20209;-73
2021/10/24 01:10:28;;;;;;;0.20;0.20;;;12.50;82.40;;;;;;4955756;28;20213;-73
2021/10/24 01:12:56;;;;;;;0.30;0.30;;;12.40;82.10;;;;;;4955274;28;20221;-73
2021/10/24 01:15:23;;;;;;;0.10;0.10;;;12.40;82.20;;;;;;4954994;28;20718;-73
2021/10/24 01:17:51;;;;;;;0.13;0.13;;;12.40;82.00;;;;;;4954483;28;20273;-70
2021/10/24 01:20:24;;;;;;;0.10;0.10;;;12.30;82.00;;;;;;4955419;28;20213;-72
2021/10/24 01:22:52;;;;;;;0.07;0.07;;;12.30;81.80;;;;;;4955993;28;20201;-72
2021/10/24 01:25:20;;;;;;;0.20;0.20;;;12.20;81.60;;;;;;4954377;28;20642;-72
2021/10/24 01:27:48;;;;;;;0.37;0.37;;;12.20;81.80;;;;;;4953996;28;20296;-72
2021/10/24 01:30:15;;;;;;;0.40;0.40;;;12.10;81.60;;;;;;4954111;28;20210;-72
2021/10/24 01:32:42;;;;;;;0.13;0.13;;;12.00;81.60;;;;;;4955214;28;20213;-72
2021/10/24 01:35:10;;;;;;;0.17;0.17;;;12.00;81.70;;;;;;4940130;28;20286;-72
2021/10/24 01:37:42;;;;;;;0.97;0.97;;;11.90;81.80;;;;;;4936231;29;20245;-72
2021/10/24 01:40:15;;;;;;;0.27;0.27;;;11.90;81.80;;;;;;4967138;28;20211;-72
2021/10/24 01:42:50;;;;;;;0.17;0.17;;;11.90;81.90;;;;;;4936474;29;20218;-72
2021/10/24 01:45:19;;;;;;;0.10;0.10;;;11.90;81.80;;;;;;4967169;28;20213;-72
2021/10/24 01:47:47;;;;;;;0.10;0.10;;;11.90;81.70;;;;;;4935943;29;20301;-72
2021/10/24 01:50:14;;;;;;;0.50;0.50;;;12.00;81.50;;;;;;4966962;28;20218;-72
2021/10/24 01:52:42;;;;;;;0.23;0.23;;;12.00;81.30;;;;;;4936160;29;20249;-73
2021/10/24 01:55:12;;;;;;;0.10;0.10;;;12.00;81.00;;;;;;4966779;28;20251;-72
2021/10/24 01:57:46;;;;;;;0.20;0.20;;;12.10;80.70;;;;;;4975366;28;20261;-73
2021/10/24 02:00:15;;;;;;;0.47;0.47;;;12.10;80.40;;;;;;4955508;29;20245;-73
2021/10/24 02:02:43;;;;;;;0.00;0.00;;;12.10;80.30;;;;;;4953217;28;20210;-72
2021/10/24 02:05:11;;;;;;;1.00;0.83;;;12.20;80.20;;;;;;4953970;29;20248;-73
2021/10/24 02:07:39;;;;;;;0.20;0.20;;;12.20;80.00;;;;;;4954109;29;20214;-72
2021/10/24 02:10:09;;;;;;;0.10;0.10;;;12.20;79.70;;;;;;4955482;28;20560;-73
2021/10/24 02:12:37;;;;;;;0.10;0.10;;;12.20;79.60;;;;;;4954926;28;20226;-73
2021/10/24 02:15:06;;;;;;;0.43;0.30;;;12.20;79.50;;;;;;4955226;28;20218;-73
2021/10/24 02:17:34;;;;;;;0.83;0.43;;;12.30;79.60;;;;;;4953995;28;20435;-73
2021/10/24 02:20:02;;;;;;;0.57;0.57;;;12.30;79.30;;;;;;4954132;29;20260;-73
2021/10/24 02:22:29;;;;;;;0.13;0.13;;;12.30;79.30;;;;;;4954861;28;20561;-73
2021/10/24 02:24:57;;;;;;;0.10;0.10;;;12.40;79.30;;;;;;4955323;29;20213;-74
2021/10/24 02:27:24;;;;;;;0.40;0.40;;;12.40;78.90;;;;;;4953621;29;20265;-74
2021/10/24 02:29:52;;;;;;;0.87;0.40;;;12.40;79.00;;;;;;4955096;28;20642;-74
2021/10/24 02:32:21;;;;;;;1.03;0.53;;;12.50;78.90;;;;;;4955010;28;20305;-74
2021/10/24 02:34:49;;;;;;;0.10;0.10;;;12.50;78.70;;;;;;4965487;28;20333;-74
2021/10/24 02:37:16;;;;;;;0.10;0.10;;;12.50;78.70;;;;;;4957198;28;20261;-74
2021/10/24 02:39:44;;;;;;;0.67;0.67;;;12.50;78.80;;;;;;4959040;29;20273;-74
2021/10/24 02:42:11;;;;;;;0.40;0.40;;;12.40;79.30;;;;;;4957933;28;20645;-74
2021/10/24 02:44:39;;;;;;;0.23;0.23;;;12.40;78.60;;;;;;4958948;28;20293;-73
2021/10/24 02:47:07;;;;;;;0.33;0.33;;;12.40;78.80;;;;;;4958511;29;20241;-74
2021/10/24 02:49:35;;;;;;;0.10;0.10;;;12.30;78.60;;;;;;4958274;29;20558;-74
2021/10/24 02:52:03;;;;;;;0.40;0.40;;;12.30;78.40;;;;;;4957942;28;20284;-75
2021/10/24 02:54:30;;;;;;;0.20;0.20;;;12.20;78.30;;;;;;4957659;29;20212;-72
2021/10/24 02:56:59;;;;;;;0.10;0.10;;;12.20;78.00;;;;;;4958990;29;20626;-72
2021/10/24 02:59:26;;;;;;;0.20;0.20;;;12.20;78.20;;;;;;4958253;28;20217;-72
2021/10/24 03:01:54;;;;;;;0.63;0.60;;;12.10;78.30;;;;;;4957438;28;20206;-74
2021/10/24 03:04:22;;;;;;;0.10;0.10;;;12.10;78.20;;;;;;4967518;28;20209;-72
2021/10/24 03:06:50;;;;;;;0.10;0.10;;;12.00;78.10;;;;;;4977478;28;20657;-73
2021/10/24 03:09:17;;;;;;;0.20;0.20;;;11.90;78.70;;;;;;4977182;28;20305;-72
2021/10/24 03:11:45;;;;;;;0.53;0.30;;;11.90;78.10;;;;;;4964425;28;20217;-73
2021/10/24 03:14:13;;;;;;;0.20;0.20;;;11.90;77.70;;;;;;4958619;28;20218;-73
2021/10/24 03:16:41;;;;;;;0.20;0.20;;;11.80;77.50;;;;;;4957629;28;20603;-73
2021/10/24 03:19:09;;;;;;;0.20;0.20;;;11.80;77.50;;;;;;4957332;29;20276;-73
2021/10/24 03:21:36;;;;;;;3.90;0.40;;;11.70;77.30;;;;;;4957549;29;20209;-73
2021/10/24 03:24:06;;;;;;;2.37;0.40;;;11.70;77.20;;;;;;4957590;28;20206;-73
2021/10/24 03:26:34;;;;;;;0.10;0.10;;;11.70;76.80;;;;;;4957544;28;20988;-73
2021/10/24 03:29:01;;;;;;;0.00;0.00;;;11.70;76.50;;;;;;4956675;28;20281;-73
2021/10/24 03:31:28;;;;;;;0.20;0.20;;;11.70;76.20;;;;;;4988742;28;20514;-73
2021/10/24 03:33:56;;;;;;;0.10;0.10;;;11.70;75.70;;;;;;4962885;28;20225;-73
2021/10/24 03:36:23;;;;;;;0.13;0.13;;;11.70;75.20;;;;;;4976761;28;20244;-72
2021/10/24 03:38:50;;;;;;;0.10;0.10;;;11.70;74.90;;;;;;4977210;28;20231;-72
2021/10/24 03:41:18;;;;;;;2.47;0.53;;;11.80;74.70;;;;;;4977133;28;20216;-71
2021/10/24 03:43:46;;;;;;;0.13;0.13;;;11.80;74.50;;;;;;5008495;28;20221;-71
2021/10/24 03:46:13;;;;;;;0.33;0.33;;;11.80;74.60;;;;;;4976542;28;20664;-71
2021/10/24 03:48:40;;;;;;;0.20;0.20;;;11.80;74.70;;;;;;4976018;28;20562;-71
2021/10/24 03:51:07;;;;;;;0.30;0.30;;;11.80;74.60;;;;;;4976375;28;20209;-72
2021/10/24 03:53:34;;;;;;;0.23;0.23;;;11.80;74.90;;;;;;4975960;28;20209;-72
2021/10/24 03:56:02;;;;;;;1.03;0.77;;;11.90;74.80;;;;;;4976126;28;20271;-72
2021/10/24 03:58:29;;;;;;;0.10;0.10;;;11.90;74.50;;;;;;4971746;28;20222;-72
2021/10/24 04:00:57;;;;;;;0.23;0.23;;;11.90;74.40;;;;;;4957156;28;20572;-74
2021/10/24 04:03:24;;;;;;;0.10;0.10;;;11.90;74.60;;;;;;4958566;28;20206;-74
2021/10/24 04:05:52;;;;;;;0.27;0.27;;;11.90;74.10;;;;;;4976427;28;20630;-74
2021/10/24 04:08:20;;;;;;;0.40;0.40;;;12.00;74.40;;;;;;4975969;28;20217;-74
2021/10/24 04:10:47;;;;;;;0.10;0.10;;;12.00;74.30;;;;;;4971488;28;20213;-74
2021/10/24 04:13:15;;;;;;;0.10;0.10;;;12.00;74.40;;;;;;4956319;28;20218;-74
2021/10/24 04:15:42;;;;;;;0.53;0.53;;;12.00;74.20;;;;;;4957242;28;20221;-73
2021/10/24 04:18:10;;;;;;;0.27;0.27;;;12.00;74.30;;;;;;4957153;28;20321;-74
2021/10/24 04:20:37;;;;;;;0.20;0.20;;;12.00;74.10;;;;;;4957847;28;20218;-72
2021/10/24 04:23:05;;;;;;;0.23;0.23;;;12.00;74.10;;;;;;4957770;29;20213;-72
2021/10/24 04:25:32;;;;;;;0.83;0.83;;;12.10;74.20;;;;;;4956679;29;20301;-72
2021/10/24 04:27:59;;;;;;;0.10;0.10;;;12.10;74.10;;;;;;4956977;28;20250;-72
2021/10/24 04:30:26;;;;;;;0.67;0.50;;;12.10;74.20;;;;;;4956622;28;20252;-71
2021/10/24 04:32:53;;;;;;;0.20;0.20;;;12.10;74.30;;;;;;4955958;29;20296;-71
2021/10/24 04:35:20;;;;;;;1.13;0.73;;;12.10;74.30;;;;;;4956540;28;20264;-71
2021/10/24 04:37:48;;;;;;;0.17;0.17;;;12.10;74.40;;;;;;4956853;28;20614;-71
2021/10/24 04:40:16;;;;;;;0.10;0.10;;;12.10;74.60;;;;;;4956591;28;20224;-71
2021/10/24 04:42:43;;;;;;;0.17;0.17;;;12.00;74.60;;;;;;4956540;28;20228;-73
2021/10/24 04:45:10;;;;;;;0.50;0.50;;;12.10;74.70;;;;;;4955433;29;20228;-74
2021/10/24 04:47:38;;;;;;;0.20;0.20;;;12.00;74.70;;;;;;4956635;28;20214;-73
2021/10/24 04:50:08;;;;;;;0.10;0.10;;;12.00;74.50;;;;;;4956478;28;20210;-74
2021/10/24 04:52:37;;;;;;;0.00;0.00;;;12.00;74.30;;;;;;4936409;29;20604;-73
2021/10/24 04:55:08;;;;;;;0.10;0.10;;;12.00;74.40;;;;;;4936368;29;20597;-73
2021/10/24 04:57:36;;;;;;;1.13;0.80;;;12.10;74.40;;;;;;4935844;29;20319;-73
2021/10/24 05:00:05;;;;;;;0.57;0.57;;;12.10;74.40;;;;;;4954733;28;20220;-73
2021/10/24 05:02:34;;;;;;;3.30;0.87;;;12.00;74.40;;;;;;4956180;28;20549;-73
2021/10/24 05:05:03;;;;;;;0.90;0.90;;;12.10;74.50;;;;;;4971535;28;20642;-73
2021/10/24 05:07:30;;;;;;;0.10;0.10;;;12.10;74.50;;;;;;4975852;28;20217;-73
2021/10/24 05:09:58;;;;;;;0.23;0.23;;;12.10;74.30;;;;;;4974939;28;20220;-73
2021/10/24 05:12:25;;;;;;;0.10;0.10;;;12.00;74.20;;;;;;4957892;28;20213;-73
2021/10/24 05:14:52;;;;;;;0.07;0.07;;;12.00;74.10;;;;;;4955434;29;20217;-73
2021/10/24 05:17:20;;;;;;;0.10;0.10;;;12.00;73.90;;;;;;4955049;29;20706;-73
2021/10/24 05:19:48;;;;;;;0.10;0.10;;;12.00;73.90;;;;;;4955308;28;20213;-73
2021/10/24 05:22:16;;;;;;;0.20;0.20;;;11.90;73.70;;;;;;4955106;29;20210;-74
2021/10/24 05:24:44;;;;;;;0.20;0.20;;;11.90;73.10;;;;;;4955295;29;20280;-73
2021/10/24 05:27:11;;;;;;;0.70;0.70;;;11.80;72.50;;;;;;4955890;28;20217;-74
2021/10/24 05:29:38;;;;;;;0.30;0.30;;;11.80;72.70;;;;;;4956201;28;20253;-73
2021/10/24 05:32:06;;;;;;;0.10;0.10;;;11.80;72.80;;;;;;4986950;28;20214;-74
2021/10/24 05:34:35;;;;;;;0.23;0.23;;;11.70;72.50;;;;;;4966193;28;20221;-73
2021/10/24 05:37:02;;;;;;;0.20;0.20;;;11.70;72.60;;;;;;4974033;28;20233;-73
2021/10/24 05:39:30;;;;;;;0.07;0.07;;;11.60;72.60;;;;;;4975820;28;20213;-74
2021/10/24 05:41:58;;;;;;;0.10;0.10;;;11.60;72.40;;;;;;4975049;28;20223;-73
2021/10/24 05:44:25;;;;;;;0.20;0.20;;;11.60;72.50;;;;;;4976757;28;20217;-73
2021/10/24 05:46:53;;;;;;;1.30;0.37;;;11.50;72.60;;;;;;4975362;28;20223;-73
2021/10/24 05:49:24;;;;;;;0.10;0.10;;;11.50;72.60;;;;;;4975794;28;20216;-74
2021/10/24 05:51:53;;;;;;;0.10;0.10;;;11.50;72.40;;;;;;4975101;28;20634;-73
2021/10/24 05:54:21;;;;;;;0.10;0.10;;;11.50;72.10;;;;;;4975838;28;20267;-73
2021/10/24 05:56:49;;;;;;;0.60;0.60;;;11.50;71.90;;;;;;4974299;28;20213;-73
2021/10/24 05:59:17;;;;;;;0.10;0.10;;;11.40;72.10;;;;;;4963398;28;20225;-73
2021/10/24 06:01:45;;;;;;;1.33;1.23;;;11.40;72.10;;;;;;4955411;28;20218;-74
2021/10/24 06:04:12;;;;;;;0.00;0.00;;;11.40;72.30;;;;;;4955762;28;20233;-73
2021/10/24 06:06:40;;;;;;;0.00;0.00;;;11.40;72.40;;;;;;4954892;28;20654;-75
2021/10/24 06:09:07;;;;;;;0.10;0.10;;;11.40;72.30;;;;;;4955082;28;20213;-75
2021/10/24 06:11:55;;;;;;;0.20;0.20;;;11.40;72.40;;;;;;4989858;28;20217;-73
2021/10/24 06:14:23;;;;;;;0.17;0.17;;;11.30;72.40;;;;;;4961379;29;20592;-73
2021/10/24 06:16:53;;;;;;;0.37;0.37;;;11.30;72.30;;;;;;4961887;28;20224;-73
2021/10/24 06:19:21;;;;;;;0.27;0.27;;;11.30;72.30;;;;;;4962093;28;20225;-73
2021/10/24 06:21:49;;;;;;;0.83;0.83;;;11.30;72.20;;;;;;4961851;28;20214;-73
2021/10/24 06:24:17;;;;;;;0.10;0.10;;;11.30;72.30;;;;;;4962876;28;20534;-73
2021/10/24 06:26:45;;;;;;;0.10;0.10;;;11.30;72.20;;;;;;4962466;28;20213;-73
2021/10/24 06:29:13;;;;;;;0.10;0.10;;;11.30;72.10;;;;;;4961789;28;20292;-73
2021/10/24 06:31:41;;;;;;;0.20;0.20;;;11.40;72.20;;;;;;4961813;28;20229;-73
2021/10/24 06:34:09;;;;;;;0.10;0.10;;;11.40;72.10;;;;;;4961927;28;20210;-73
2021/10/24 06:36:38;;;;;;;0.10;0.10;;;11.50;72.20;;;;;;4960749;29;20288;-73
2021/10/24 06:39:05;;;;;;;0.30;0.30;;;11.60;72.10;;;;;;4961622;28;20237;-72
2021/10/24 06:41:33;;;;;;;0.10;0.10;;;11.60;71.40;;;;;;4992653;28;20210;-72
2021/10/24 06:44:01;;;;;;;0.30;0.30;;;11.80;71.00;;;;;;4961474;28;20221;-72
2021/10/24 06:46:28;;;;;;;0.20;0.20;;;11.80;70.90;;;;;;4961312;28;20205;-72
2021/10/24 06:48:55;;;;;;;0.83;0.83;;;11.90;70.90;;;;;;4961445;28;20236;-72
2021/10/24 06:51:22;;;;;;;0.27;0.27;;;12.00;70.30;;;;;;4961503;28;20209;-72
2021/10/24 06:53:50;;;;;;;0.83;0.83;;;12.10;69.90;;;;;;4993123;28;20224;-72
2021/10/24 06:56:17;;;;;;;0.20;0.20;;;12.20;70.30;;;;;;4961182;28;20669;-72
2021/10/24 06:58:44;;;;;;;0.30;0.30;;;12.30;70.30;;;;;;4961343;28;20245;-73
2021/10/24 07:01:11;;;;;;;0.40;0.40;;;12.50;70.40;;;;;;4960498;28;20213;-73
2021/10/24 07:03:40;;;;;;;0.10;0.10;;;12.70;69.70;;;;;;4962588;28;20217;-73
2021/10/24 07:06:07;;;;;;;0.13;0.13;;;12.80;68.90;;;;;;4960625;29;20224;-73
2021/10/24 07:08:35;;;;;;;0.10;0.10;;;13.00;67.60;;;;;;4962704;28;20544;-73
2021/10/24 07:11:03;;;;;;;0.10;0.10;;;13.10;67.70;;;;;;4961412;28;20229;-73
2021/10/24 07:13:30;;;;;;;0.10;0.10;;;13.30;67.50;;;;;;4961303;28;20210;-74
2021/10/24 07:16:00;;;;;;;0.10;0.10;;;13.50;65.80;;;;;;4959637;29;20618;-73
2021/10/24 07:18:28;;;;;;;0.10;0.10;;;13.60;65.70;;;;;;4959963;29;20243;-73
2021/10/24 07:20:56;;;;;;;0.10;0.10;;;13.70;65.50;;;;;;4960075;28;20221;-73
2021/10/24 07:23:23;;;;;;;0.40;0.40;;;13.80;64.80;;;;;;4959715;28;20526;-73
2021/10/24 07:25:51;;;;;;;0.40;0.40;;;13.90;64.60;;;;;;4955243;28;20245;-73
2021/10/24 07:28:20;;;;;;;0.60;0.60;;;14.00;64.20;;;;;;4955785;29;20749;-73
2021/10/24 07:30:48;;;;;;;0.20;0.20;;;14.10;64.00;;;;;;4956538;28;20231;-73
2021/10/24 07:33:15;;;;;;;0.53;0.53;;;14.20;63.90;;;;;;4957022;28;20791;-74
2021/10/24 07:35:42;;;;;;;0.30;0.30;;;14.40;63.60;;;;;;4956240;28;20284;-74
2021/10/24 07:38:15;;;;;;;0.10;0.10;;;14.50;63.30;;;;;;4940132;28;20325;-75
2021/10/24 07:40:49;;;;;;;3.13;1.07;;;14.60;62.70;;;;;;4956341;28;20210;-75
2021/10/24 07:43:20;;;;;;;0.10;0.10;;;14.60;62.50;;;;;;4956167;28;20292;-75
2021/10/24 07:45:51;;;;;;;0.40;0.40;;;14.60;62.80;;;;;;4956347;28;20217;-75
2021/10/24 07:48:20;;;;;;;0.10;0.10;;;14.60;62.90;;;;;;4956408;28;20226;-74
2021/10/24 07:50:49;;;;;;;0.90;0.73;;;14.70;62.80;;;;;;4956356;28;20222;-74
2021/10/24 07:53:18;;;;;;;0.20;0.20;;;14.80;62.60;;;;;;4957939;28;20214;-74
2021/10/24 07:55:45;;;;;;;0.10;0.10;;;14.90;62.60;;;;;;4956302;28;20253;-75
2021/10/24 07:58:12;;;;;;;0.17;0.17;;;15.00;61.90;;;;;;4956346;29;20230;-75
2021/10/24 08:00:40;;;;;;;0.10;0.10;;;15.00;62.10;;;;;;4955099;28;20302;-75
2021/10/24 08:03:08;;;;;;;0.00;0.00;;;15.00;61.80;;;;;;4956314;28;20222;-75
2021/10/24 08:05:36;;;;;;;0.00;0.00;;;15.00;61.80;;;;;;4955590;28;20224;-75
2021/10/24 08:08:04;;;;;;;0.10;0.10;;;15.10;61.90;;;;;;4957153;29;20306;-75
2021/10/24 08:10:31;;;;;;;0.10;0.10;;;15.30;61.40;;;;;;4956887;28;20280;-75
2021/10/24 08:12:59;;;;;;;0.50;0.50;;;15.40;60.90;;;;;;4956716;28;20225;-75
2021/10/24 08:15:26;;;;;;;0.10;0.10;;;15.50;60.10;;;;;;4956148;28;20555;-74
2021/10/24 08:17:53;;;;;;;0.10;0.10;;;15.60;60.60;;;;;;4956092;28;20234;-75
2021/10/24 08:20:21;;;;;;;0.37;0.37;;;15.70;60.40;;;;;;4987905;28;20218;-74
2021/10/24 08:22:49;;;;;;;0.10;0.10;;;15.70;60.00;;;;;;4956841;28;20217;-74
2021/10/24 08:25:16;;;;;;;0.33;0.33;;;15.80;60.20;;;;;;4956780;28;20220;-74
2021/10/24 08:27:44;;;;;;;4.90;0.97;;;15.90;60.40;;;;;;4955632;28;20320;-75
2021/10/24 08:30:11;;;;;;;0.10;0.10;;;16.10;60.40;;;;;;4956382;28;20225;-75
2021/10/24 08:32:39;;;;;;;0.10;0.10;;;16.20;60.00;;;;;;4987728;28;20312;-74
2021/10/24 08:35:07;;;;;;;0.30;0.30;;;16.30;59.50;;;;;;4956119;28;20210;-74
2021/10/24 08:37:35;;;;;;;0.10;0.10;;;16.40;58.90;;;;;;4954980;28;20288;-74
2021/10/24 08:40:05;;;;;;;0.30;0.30;;;16.50;59.50;;;;;;4955619;28;20236;-74
2021/10/24 08:42:38;;;;;;;0.10;0.10;;;16.60;59.40;;;;;;4956722;28;20213;-74
2021/10/24 08:45:06;;;;;;;0.67;0.67;;;16.70;59.50;;;;;;4956037;28;20863;-74
2021/10/24 08:47:35;;;;;;;0.10;0.10;;;17.00;59.50;;;;;;4954759;29;20210;-74
2021/10/24 08:50:03;;;;;;;0.10;0.10;;;17.20;58.90;;;;;;4955917;28;20220;-75
2021/10/24 08:52:36;;;;;;;0.23;0.23;;;17.40;58.10;;;;;;4955893;29;20533;-75
2021/10/24 08:55:03;;;;;;;0.10;0.10;;;17.40;57.20;;;;;;4955818;29;20216;-75
2021/10/24 08:57:30;;;;;;;0.67;0.57;;;17.40;57.60;;;;;;4955782;28;20634;-75
2021/10/24 08:59:58;;;;;;;0.13;0.13;;;17.40;57.60;;;;;;4956215;28;20229;-75
2021/10/24 09:02:45;;;;;;;0.10;0.10;;;17.40;57.60;;;;;;4954901;28;20607;-74
2021/10/24 09:05:36;;;;;;;0.17;0.17;;;17.40;58.10;;;;;;4955898;28;20248;-74
2021/10/24 09:08:06;;;;;;;0.17;0.17;;;17.60;57.70;;;;;;4954955;28;20217;-74
2021/10/24 09:10:36;;;;;;;0.33;0.20;;;17.70;57.50;;;;;;4954807;28;20225;-74
2021/10/24 09:13:08;;;;;;;6.20;1.87;;;17.70;57.10;;;;;;4954668;29;20225;-74
2021/10/24 09:15:45;;;;;;;0.00;0.00;;;17.60;57.10;;;;;;4955456;28;20217;-74
2021/10/24 09:18:13;;;;;;;0.43;0.43;;;17.60;57.30;;;;;;4955688;29;20284;-74
2021/10/24 09:20:51;;;;;;;0.10;0.10;;;17.70;57.50;;;;;;4955241;28;20205;-75
2021/10/24 09:23:18;;;;;;;1.03;1.03;;;17.80;57.80;;;;;;4954015;29;20214;-75
2021/10/24 09:25:56;;;;;;;0.40;0.40;;;17.90;56.90;;;;;;4954745;28;20206;-74
2021/10/24 09:28:26;;;;;;;0.10;0.10;;;17.80;56.90;;;;;;4955577;29;20248;-73
2021/10/24 09:31:05;;;;;;;0.10;0.10;;;17.90;57.60;;;;;;4954961;29;20214;-73
2021/10/24 09:33:49;;;;;;;0.93;0.93;;;18.00;56.90;;;;;;4955824;28;20242;-73
2021/10/24 09:36:24;;;;;;;0.30;0.30;;;18.00;57.00;;;;;;4954401;29;20733;-73
2021/10/24 09:39:06;;;;;;;0.20;0.20;;;18.10;57.20;;;;;;4954752;29;20261;-73
2021/10/24 09:41:33;;;;;;;0.40;0.30;;;18.20;57.00;;;;;;4955238;28;20217;-73
2021/10/24 09:44:17;;;;;;;0.10;0.10;;;18.20;56.90;;;;;;4955416;29;20213;-73
2021/10/24 09:46:57;;;;;;;0.10;0.10;;;18.30;56.60;;;;;;4953788;28;20233;-73
2021/10/24 09:49:26;;;;;;;1.70;1.03;;;18.30;56.40;;;;;;4955234;29;20213;-73
2021/10/24 09:51:54;;;;;;;0.10;0.10;;;18.40;56.70;;;;;;4954958;28;20216;-73
2021/10/24 09:54:25;;;;;;;0.83;0.43;;;18.50;56.40;;;;;;4954698;28;20358;-73
2021/10/24 09:56:53;;;;;;;0.50;0.50;;;18.50;56.10;;;;;;4954655;28;20229;-73
2021/10/24 09:59:22;;;;;;;0.33;0.33;;;18.50;56.20;;;;;;4954909;28;20336;-73
2021/10/24 10:01:51;;;;;;;1.10;0.77;;;18.60;55.90;;;;;;4954841;29;20221;-73
2021/10/24 10:04:23;;;;;;;0.70;0.70;;;18.60;56.20;;;;;;4955175;28;20217;-73
2021/10/24 10:06:50;;;;;;;0.30;0.30;;;18.70;55.90;;;;;;4954696;28;20213;-73
2021/10/24 10:09:17;;;;;;;0.57;0.57;;;18.70;56.90;;;;;;4955072;28;20224;-73
2021/10/24 10:11:57;;;;;;;0.10;0.10;;;18.70;56.30;;;;;;4954746;28;20594;-73
2021/10/24 10:14:31;;;;;;;0.80;0.80;;;18.60;56.20;;;;;;4955366;28;20213;-73
2021/10/24 10:17:04;;;;;;;0.10;0.10;;;18.70;56.50;;;;;;4955070;28;20308;-73
2021/10/24 10:19:40;;;;;;;0.77;0.77;;;18.80;56.20;;;;;;4985665;28;20704;-73
2021/10/24 10:22:30;;;;;;;3.83;0.73;;;19.00;56.40;;;;;;4954779;28;20210;-73
2021/10/24 10:25:09;;;;;;;0.33;0.33;;;19.20;56.20;;;;;;4954510;29;20216;-73
2021/10/24 10:27:39;;;;;;;0.40;0.40;;;19.30;55.60;;;;;;4955093;28;20224;-73
2021/10/24 10:30:13;;;;;;;0.20;0.20;;;19.30;55.70;;;;;;4950987;28;20226;-73
2021/10/24 10:32:51;;;;;;;0.73;0.73;;;19.40;55.60;;;;;;4954820;29;20213;-73
2021/10/24 10:35:23;;;;;;;0.40;0.40;;;19.40;54.90;;;;;;4953904;29;20221;-73
2021/10/24 10:38:04;;;;;;;0.10;0.10;;;19.50;54.60;;;;;;4954036;29;20717;-73
2021/10/24 10:40:39;;;;;;;0.10;0.10;;;19.40;54.90;;;;;;4955227;28;20213;-73
2021/10/24 10:43:22;;;;;;;0.10;0.10;;;19.50;54.80;;;;;;4954475;28;20216;-73
2021/10/24 10:45:55;;;;;;;0.83;0.73;;;19.50;54.60;;;;;;4953417;28;20260;-74
2021/10/24 10:48:23;;;;;;;0.20;0.20;;;19.60;54.60;;;;;;4954069;29;20222;-74
2021/10/24 10:51:09;;;;;;;0.67;0.67;;;19.60;54.40;;;;;;4953472;29;20224;-74
2021/10/24 10:53:36;;;;;;;0.10;0.10;;;19.60;54.40;;;;;;4953502;28;20228;-74
2021/10/24 10:56:07;;;;;;;0.37;0.37;;;19.70;54.60;;;;;;4953950;28;20705;-74
2021/10/24 10:58:43;;;;;;;0.33;0.33;;;19.70;54.50;;;;;;4957053;28;20237;-74
2021/10/24 11:01:28;;;;;;;0.00;0.00;;;19.80;54.60;;;;;;4957184;28;20213;-74
2021/10/24 11:04:13;;;;;;;0.37;0.37;;;19.90;54.50;;;;;;4957356;28;20248;-73
2021/10/24 11:06:40;;;;;;;0.20;0.20;;;20.00;54.40;;;;;;4958177;29;20304;-73
2021/10/24 11:09:09;;;;;;;0.10;0.10;;;20.00;53.90;;;;;;4958052;28;20217;-73
2021/10/24 11:14:15;;;;;;;0.40;0.27;;;19.80;53.90;;;;;;4958200;28;20304;-73
2021/10/24 11:16:45;;;;;;;1.23;1.13;;;19.80;54.10;;;;;;4957596;28;20648;-73
2021/10/24 11:22:03;;;;;;;0.10;0.10;;;19.80;54.00;;;;;;4957600;29;20237;-73
2021/10/24 11:24:32;;;;;;;0.20;0.20;;;19.80;54.00;;;;;;4958285;29;20535;-73
2021/10/24 11:27:01;;;;;;;0.30;0.30;;;20.00;53.80;;;;;;4957777;28;20213;-73
2021/10/24 11:29:28;;;;;;;1.40;0.20;;;20.00;53.70;;;;;;4957049;29;20257;-73
2021/10/24 11:32:34;;;;;;;0.10;0.10;;;20.10;52.90;;;;;;4958373;29;20237;-73
2021/10/24 11:35:22;;;;;;;6.03;0.97;;;20.10;52.90;;;;;;4921410;29;20689;-73
2021/10/24 11:37:51;;;;;;;0.77;0.40;;;20.10;53.10;;;;;;4957385;28;20218;-73
2021/10/24 11:40:25;;;;;;;0.00;0.00;;;20.00;52.60;;;;;;4956651;29;20252;-73
2021/10/24 11:42:59;;;;;;;0.93;0.93;;;19.90;53.00;;;;;;4956553;29;20289;-73
2021/10/24 11:45:35;;;;;;;2.23;0.90;;;19.80;52.50;;;;;;4957312;28;20646;-73
2021/10/24 11:48:10;;;;;;;0.60;0.60;;;19.70;52.80;;;;;;4957114;28;20603;-73
2021/10/24 11:50:47;;;;;;;0.00;0.00;;;19.80;51.80;;;;;;4956443;28;20265;-73
2021/10/24 11:53:19;;;;;;;0.10;0.10;;;19.80;52.10;;;;;;4957624;28;20190;-73
2021/10/24 11:55:54;;;;;;;0.07;0.07;;;19.90;52.50;;;;;;4957454;28;20229;-73
2021/10/24 11:58:33;;;;;;;0.20;0.20;;;20.10;52.00;;;;;;4957602;28;20252;-73
2021/10/24 12:01:08;;;;;;;0.30;0.30;;;20.20;51.80;;;;;;4956356;29;20218;-73
2021/10/24 12:03:39;;;;;;;0.13;0.13;;;20.10;52.10;;;;;;4956449;28;20288;-73
2021/10/24 12:06:08;;;;;;;2.63;0.90;;;20.00;52.70;;;;;;4956564;28;20649;-73
2021/10/24 12:08:46;;;;;;;0.10;0.10;;;19.90;52.70;;;;;;4957106;28;20281;-73
2021/10/24 12:11:17;;;;;;;0.10;0.10;;;19.90;52.80;;;;;;4956523;28;20210;-73
2021/10/24 12:13:45;;;;;;;1.03;0.73;;;20.00;53.20;;;;;;4953370;28;20311;-73
2021/10/24 12:16:24;;;;;;;0.40;0.40;;;20.00;53.20;;;;;;4968689;28;20277;-73
2021/10/24 12:19:07;;;;;;;0.10;0.10;;;20.10;53.50;;;;;;4937766;29;20245;-73
2021/10/24 12:21:34;;;;;;;0.30;0.30;;;20.20;52.50;;;;;;4968706;28;20307;-73
2021/10/24 12:24:15;;;;;;;0.20;0.20;;;20.30;52.50;;;;;;4969067;28;20245;-73
2021/10/24 12:26:43;;;;;;;0.13;0.13;;;20.20;51.70;;;;;;4937858;29;20218;-73
2021/10/24 12:29:15;;;;;;;0.10;0.10;;;20.20;51.60;;;;;;4980210;28;20249;-73
2021/10/24 12:31:44;;;;;;;0.20;0.20;;;20.20;49.90;;;;;;4956733;28;20630;-73
2021/10/24 12:34:15;;;;;;;0.10;0.10;;;20.10;49.40;;;;;;4956184;29;20301;-73
2021/10/24 12:36:43;;;;;;;0.20;0.20;;;20.20;49.50;;;;;;4956786;29;20218;-73
2021/10/24 12:39:25;;;;;;;0.10;0.10;;;20.20;48.80;;;;;;4956203;29;20316;-73
2021/10/24 12:41:53;;;;;;;0.10;0.10;;;20.20;49.20;;;;;;4956662;28;20209;-73
2021/10/24 12:44:23;;;;;;;0.33;0.33;;;20.20;48.40;;;;;;4956903;28;20217;-73
2021/10/24 12:46:54;;;;;;;0.30;0.30;;;20.20;48.80;;;;;;4956856;29;20221;-73
2021/10/24 12:49:24;;;;;;;0.60;0.60;;;20.30;48.80;;;;;;4955897;28;20220;-73
2021/10/24 12:52:15;;;;;;;0.00;0.00;;;20.20;47.00;;;;;;4956522;28;20228;-73
2021/10/24 12:54:57;;;;;;;0.10;0.10;;;20.00;47.90;;;;;;4955647;28;20901;-73
2021/10/24 12:57:24;;;;;;;0.67;0.67;;;20.00;47.30;;;;;;4956105;28;20677;-73
2021/10/24 12:59:52;;;;;;;0.10;0.10;;;20.00;47.80;;;;;;4956790;28;20612;-73
2021/10/24 13:02:19;;;;;;;1.60;1.03;;;20.00;47.90;;;;;;4956409;28;20221;-73
2021/10/24 13:04:47;;;;;;;0.00;0.00;;;20.00;47.40;;;;;;4955912;29;20224;-73
2021/10/24 13:07:14;;;;;;;0.33;0.33;;;20.10;47.30;;;;;;4956966;28;20245;-73